Time,TemperatureF,DewpointF,PressureIn,WindDirection,WindDirectionDegrees,WindSpeedMPH,WindSpeedGustMPH,Humidity,HourlyPrecipIn,Conditions,Clouds,dailyrainin,SoftwareType,DateUTC
2013-06-26 00:00:00,64.6,63.1,29.85,West,262,0.0,0.0,95,0.00,,---,0.00,VWS V14.01,2013-06-26 04:00:00,
2013-06-26 00:01:00,64.6,63.1,29.85,West,262,0.0,1.0,95,0.00,,---,0.00,VWS V14.01,2013-06-26 04:01:00,
2013-06-26 00:02:00,64.6,63.1,29.85,West,262,1.0,2.0,95,0.00,,---,0.00,VWS V14.01,2013-06-26 04:02:00,
2013-06-26 00:07:00,64.6,63.1,29.85,West,265,0.0,3.0,95,0.00,,---,0.00,VWS V14.01,2013-06-26 04:07:00,
2013-06-26 00:10:00,65.4,63.0,29.86,WSW,249,0.0,0.0,92,0.00,,---,0.00,VWS V14.01,2013-06-26 04:10:00,
2013-06-26 00:12:00,64.8,63.3,29.85,West,264,1.0,2.0,95,0.00,,---,0.00,VWS V14.01,2013-06-26 04:12:00,
2013-06-26 00:17:00,64.6,63.1,29.85,West,266,2.0,3.0,95,0.00,,---,0.00,VWS V14.01,2013-06-26 04:17:00,
2013-06-26 00:20:00,64.9,62.8,29.86,WSW,254,0.0,1.0,93,0.00,,---,0.00,VWS V14.01,2013-06-26 04:20:00,
2013-06-26 00:22:00,64.6,63.1,29.86,West,265,0.0,0.0,95,0.00,,---,0.00,VWS V14.01,2013-06-26 04:22:00,
2013-06-26 00:27:00,64.4,62.9,29.85,West,266,0.0,1.0,95,0.00,,---,0.00,VWS V14.01,2013-06-26 04:27:00,
2013-06-26 00:30:00,64.6,62.5,29.85,WSW,257,0.0,0.0,93,0.00,,---,0.00,VWS V14.01,2013-06-26 04:30:00,
2013-06-26 00:32:00,64.1,62.6,29.85,West,269,1.0,2.0,95,0.00,,---,0.00,VWS V14.01,2013-06-26 04:32:00,
2013-06-26 00:37:00,64.2,62.7,29.85,West,269,3.0,4.0,95,0.00,,---,0.00,VWS V14.01,2013-06-26 04:37:00,
2013-06-26 00:40:00,64.4,62.6,29.85,WSW,257,0.0,0.0,94,0.00,,---,0.00,VWS V14.01,2013-06-26 04:40:00,
2013-06-26 00:42:00,64.0,62.5,29.85,West,268,2.0,3.0,95,0.00,,---,0.00,VWS V14.01,2013-06-26 04:42:00,
2013-06-26 00:47:00,63.8,62.3,29.85,West,268,1.0,3.0,95,0.00,,---,0.00,VWS V14.01,2013-06-26 04:47:00,
2013-06-26 00:50:00,64.4,62.6,29.85,West,259,0.0,0.0,94,0.00,,---,0.00,VWS V14.01,2013-06-26 04:50:00,
2013-06-26 00:52:00,63.8,62.3,29.85,West,270,0.0,3.0,95,0.00,,---,0.00,VWS V14.01,2013-06-26 04:52:00,
2013-06-26 00:57:00,63.8,62.3,29.85,West,270,0.0,3.0,95,0.00,,---,0.00,VWS V14.01,2013-06-26 04:57:00,
2013-06-26 01:00:00,64.6,62.8,29.85,West,262,0.0,0.0,94,0.00,,---,0.00,VWS V14.01,2013-06-26 05:00:00,
2013-06-26 01:02:00,63.6,62.2,29.85,West,269,0.0,0.0,95,0.00,,---,0.00,VWS V14.01,2013-06-26 05:02:00,
2013-06-26 01:07:00,63.5,62.0,29.85,West,268,0.0,0.0,95,0.00,,---,0.00,VWS V14.01,2013-06-26 05:07:00,
2013-06-26 01:10:00,64.8,63.3,29.85,West,265,0.0,3.0,95,0.00,,---,0.00,VWS V14.01,2013-06-26 05:10:00,
2013-06-26 01:12:00,63.5,62.3,29.85,West,269,0.0,0.0,96,0.00,,---,0.00,VWS V14.01,2013-06-26 05:12:00,
2013-06-26 01:17:00,63.3,62.4,29.85,West,269,0.0,0.0,97,0.00,,---,0.00,VWS V14.01,2013-06-26 05:17:00,
2013-06-26 01:20:00,64.6,63.1,29.85,West,266,0.0,3.0,95,0.00,,---,0.00,VWS V14.01,2013-06-26 05:20:00,
2013-06-26 01:22:00,63.1,62.2,29.85,West,269,0.0,2.0,97,0.00,,---,0.00,VWS V14.01,2013-06-26 05:22:00,
2013-06-26 01:27:00,63.3,62.4,29.85,West,270,1.0,3.0,97,0.00,,---,0.00,VWS V14.01,2013-06-26 05:27:00,
2013-06-26 01:30:00,64.3,62.8,29.85,West,266,0.0,2.0,95,0.00,,---,0.00,VWS V14.01,2013-06-26 05:30:00,
2013-06-26 01:32:00,63.5,62.6,29.85,West,270,1.0,3.0,97,0.00,,---,0.00,VWS V14.01,2013-06-26 05:32:00,
2013-06-26 01:37:00,63.5,62.6,29.86,West,269,0.0,3.0,97,0.00,,---,0.00,VWS V14.01,2013-06-26 05:37:00,
2013-06-26 01:40:00,64.1,62.6,29.85,West,269,1.0,4.0,95,0.00,,---,0.00,VWS V14.01,2013-06-26 05:40:00,
2013-06-26 01:42:00,63.3,62.4,29.85,West,270,1.0,2.0,97,0.00,,---,0.00,VWS V14.01,2013-06-26 05:42:00,
2013-06-26 01:47:00,63.0,62.1,29.85,West,270,0.0,2.0,97,0.00,,---,0.00,VWS V14.01,2013-06-26 05:47:00,
2013-06-26 01:50:00,63.8,62.3,29.85,West,269,2.0,3.0,95,0.00,,---,0.00,VWS V14.01,2013-06-26 05:50:00,
2013-06-26 01:52:00,63.0,62.1,29.85,West,270,1.0,2.0,97,0.00,,---,0.00,VWS V14.01,2013-06-26 05:52:00,
2013-06-26 01:58:00,62.7,61.8,29.85,West,269,1.0,3.0,97,0.00,,---,0.00,VWS V14.01,2013-06-26 05:58:00,
2013-06-26 02:00:00,63.8,62.3,29.85,West,269,0.0,3.0,95,0.00,,---,0.00,VWS V14.01,2013-06-26 06:00:00,
2013-06-26 02:03:00,62.2,61.3,29.85,West,269,0.0,2.0,97,0.00,,---,0.00,VWS V14.01,2013-06-26 06:03:00,
2013-06-26 02:08:00,62.2,61.3,29.85,West,268,1.0,3.0,97,0.00,,---,0.00,VWS V14.01,2013-06-26 06:08:00,
2013-06-26 02:10:00,63.5,62.3,29.85,West,268,0.0,0.0,96,0.00,,---,0.00,VWS V14.01,2013-06-26 06:10:00,
2013-06-26 02:13:00,62.0,61.1,29.85,West,267,0.0,3.0,97,0.00,,---,0.00,VWS V14.01,2013-06-26 06:13:00,
2013-06-26 02:18:00,61.9,61.0,29.84,West,266,2.0,3.0,97,0.00,,---,0.00,VWS V14.01,2013-06-26 06:18:00,
2013-06-26 02:20:00,63.3,62.7,29.85,West,269,0.0,0.0,98,0.00,,---,0.00,VWS V14.01,2013-06-26 06:20:00,
2013-06-26 02:23:00,61.6,60.7,29.84,West,262,3.0,3.0,97,0.00,,---,0.00,VWS V14.01,2013-06-26 06:23:00,
2013-06-26 02:28:00,61.6,60.7,29.84,SSE,164,1.0,4.0,97,0.00,,---,0.00,VWS V14.01,2013-06-26 06:28:00,
2013-06-26 02:30:00,63.5,62.6,29.85,West,270,1.0,3.0,97,0.00,,---,0.00,VWS V14.01,2013-06-26 06:30:00,
2013-06-26 02:33:00,61.7,60.8,29.84,SSE,152,2.0,3.0,97,0.00,,---,0.00,VWS V14.01,2013-06-26 06:33:00,
2013-06-26 02:38:00,61.9,61.0,29.84,SSE,157,0.0,3.0,97,0.00,,---,0.00,VWS V14.01,2013-06-26 06:38:00,
2013-06-26 02:40:00,63.3,62.4,29.85,West,269,0.0,3.0,97,0.00,,---,0.00,VWS V14.01,2013-06-26 06:40:00,
2013-06-26 02:43:00,62.1,61.5,29.84,SSE,156,2.0,3.0,98,0.00,,---,0.00,VWS V14.01,2013-06-26 06:43:00,
2013-06-26 02:48:00,62.2,61.6,29.83,SSE,157,0.0,3.0,98,0.00,,---,0.00,VWS V14.01,2013-06-26 06:48:00,
2013-06-26 02:50:00,63.0,62.1,29.85,West,270,1.0,2.0,97,0.00,,---,0.00,VWS V14.01,2013-06-26 06:50:00,
2013-06-26 02:53:00,62.2,61.6,29.83,SSE,156,1.0,3.0,98,0.00,,---,0.00,VWS V14.01,2013-06-26 06:53:00,
2013-06-26 02:58:00,62.4,61.8,29.84,SSE,156,0.0,3.0,98,0.00,,---,0.00,VWS V14.01,2013-06-26 06:58:00,
2013-06-26 03:00:00,62.5,61.6,29.85,West,269,0.0,3.0,97,0.00,,---,0.00,VWS V14.01,2013-06-26 07:00:00,
2013-06-26 03:03:00,62.4,61.5,29.83,SSE,157,1.0,2.0,97,0.00,,---,0.00,VWS V14.01,2013-06-26 07:03:00,
2013-06-26 03:08:00,62.2,61.6,29.84,SSE,157,1.0,2.0,98,0.00,,---,0.00,VWS V14.01,2013-06-26 07:08:00,
2013-06-26 03:10:00,62.2,61.6,29.85,West,268,2.0,3.0,98,0.00,,---,0.00,VWS V14.01,2013-06-26 07:10:00,
2013-06-26 03:13:00,61.9,61.3,29.83,SSE,155,0.0,2.0,98,0.00,,---,0.00,VWS V14.01,2013-06-26 07:13:00,
2013-06-26 03:18:00,61.7,61.1,29.83,South,179,0.0,2.0,98,0.00,,---,0.00,VWS V14.01,2013-06-26 07:18:00,
2013-06-26 03:20:00,61.8,60.9,29.84,West,264,1.0,3.0,97,0.00,,---,0.00,VWS V14.01,2013-06-26 07:20:00,
2013-06-26 03:23:00,61.4,60.8,29.83,South,179,0.0,0.0,98,0.00,,---,0.00,VWS V14.01,2013-06-26 07:23:00,
2013-06-26 03:28:00,61.3,60.4,29.83,South,179,0.0,0.0,97,0.00,,---,0.00,VWS V14.01,2013-06-26 07:28:00,
2013-06-26 03:30:00,61.6,60.7,29.84,SSE,163,1.0,4.0,97,0.00,,---,0.00,VWS V14.01,2013-06-26 07:30:00,
2013-06-26 03:33:00,61.3,60.7,29.83,South,178,0.0,0.0,98,0.00,,---,0.00,VWS V14.01,2013-06-26 07:33:00,
2013-06-26 03:38:00,61.3,60.7,29.83,South,178,0.0,1.0,98,0.00,,---,0.00,VWS V14.01,2013-06-26 07:38:00,
2013-06-26 03:40:00,62.1,61.5,29.84,SSE,156,0.0,3.0,98,0.00,,---,0.00,VWS V14.01,2013-06-26 07:40:00,
2013-06-26 03:43:00,61.0,60.4,29.83,South,178,0.0,1.0,98,0.00,,---,0.00,VWS V14.01,2013-06-26 07:43:00,
2013-06-26 03:48:00,60.7,60.1,29.83,South,178,1.0,2.0,98,0.00,,---,0.00,VWS V14.01,2013-06-26 07:48:00,
2013-06-26 03:50:00,62.0,61.4,29.83,SSE,157,2.0,3.0,98,0.00,,---,0.00,VWS V14.01,2013-06-26 07:50:00,
2013-06-26 03:53:00,60.8,60.2,29.84,South,177,0.0,2.0,98,0.00,,---,0.00,VWS V14.01,2013-06-26 07:53:00,
2013-06-26 03:58:00,61.0,60.4,29.84,South,177,0.0,2.0,98,0.00,,---,0.00,VWS V14.01,2013-06-26 07:58:00,
2013-06-26 04:00:00,62.4,61.8,29.84,SSE,156,1.0,3.0,98,0.00,,---,0.00,VWS V14.01,2013-06-26 08:00:00,
2013-06-26 04:03:00,61.0,60.4,29.83,South,177,0.0,2.0,98,0.00,,---,0.00,VWS V14.01,2013-06-26 08:03:00,
2013-06-26 04:08:00,60.9,60.3,29.83,South,177,2.0,2.0,98,0.00,,---,0.00,VWS V14.01,2013-06-26 08:08:00,
2013-06-26 04:10:00,62.2,61.6,29.84,SSE,157,2.0,2.0,98,0.00,,---,0.00,VWS V14.01,2013-06-26 08:10:00,
2013-06-26 04:13:00,61.1,60.5,29.83,South,177,1.0,2.0,98,0.00,,---,0.00,VWS V14.01,2013-06-26 08:13:00,
2013-06-26 04:18:00,61.0,60.4,29.83,South,177,1.0,3.0,98,0.00,,---,0.00,VWS V14.01,2013-06-26 08:18:00,
2013-06-26 04:20:00,61.6,60.7,29.83,South,179,0.0,2.0,97,0.00,,---,0.00,VWS V14.01,2013-06-26 08:20:00,
2013-06-26 04:23:00,60.7,60.1,29.83,South,177,0.0,3.0,98,0.00,,---,0.00,VWS V14.01,2013-06-26 08:23:00,
2013-06-26 04:28:00,60.5,59.9,29.83,South,177,0.0,3.0,98,0.00,,---,0.00,VWS V14.01,2013-06-26 08:28:00,
2013-06-26 04:30:00,61.1,60.2,29.83,South,179,0.0,0.0,97,0.00,,---,0.00,VWS V14.01,2013-06-26 08:30:00,
2013-06-26 04:33:00,60.3,59.7,29.83,South,177,0.0,2.0,98,0.00,,---,0.00,VWS V14.01,2013-06-26 08:33:00,
2013-06-26 04:38:00,60.3,59.7,29.82,South,177,0.0,2.0,98,0.00,,---,0.00,VWS V14.01,2013-06-26 08:38:00,
2013-06-26 04:40:00,61.2,60.6,29.83,South,178,1.0,2.0,98,0.00,,---,0.00,VWS V14.01,2013-06-26 08:40:00,
2013-06-26 04:43:00,60.3,59.7,29.82,South,177,0.0,0.0,98,0.00,,---,0.00,VWS V14.01,2013-06-26 08:43:00,
2013-06-26 04:48:00,60.3,59.7,29.82,South,176,0.0,3.0,98,0.00,,---,0.00,VWS V14.01,2013-06-26 08:48:00,
2013-06-26 04:50:00,60.7,60.1,29.84,South,178,0.0,2.0,98,0.00,,---,0.00,VWS V14.01,2013-06-26 08:50:00,
2013-06-26 04:53:00,60.2,59.6,29.82,South,176,1.0,3.0,98,0.00,,---,0.00,VWS V14.01,2013-06-26 08:53:00,
2013-06-26 04:58:00,60.2,59.6,29.81,South,176,1.0,3.0,98,0.00,,---,0.00,VWS V14.01,2013-06-26 08:58:00,
2013-06-26 05:00:00,61.0,60.4,29.84,South,177,0.0,2.0,98,0.00,,---,0.00,VWS V14.01,2013-06-26 09:00:00,
2013-06-26 05:03:00,60.2,59.9,29.82,South,176,0.0,3.0,99,0.00,,---,0.00,VWS V14.01,2013-06-26 09:03:00,
2013-06-26 05:08:00,60.0,59.7,29.83,South,176,0.0,3.0,99,0.00,,---,0.00,VWS V14.01,2013-06-26 09:08:00,
2013-06-26 05:10:00,61.0,60.4,29.83,South,177,1.0,2.0,98,0.00,,---,0.00,VWS V14.01,2013-06-26 09:10:00,
2013-06-26 05:13:00,59.9,59.6,29.83,South,176,1.0,2.0,99,0.00,,---,0.00,VWS V14.01,2013-06-26 09:13:00,
2013-06-26 05:18:00,59.7,59.4,29.82,South,176,3.0,4.0,99,0.00,,---,0.00,VWS V14.01,2013-06-26 09:18:00,
2013-06-26 05:20:00,60.8,60.5,29.83,South,177,3.0,3.0,99,0.00,,---,0.00,VWS V14.01,2013-06-26 09:20:00,
2013-06-26 05:23:00,60.5,60.2,29.83,South,176,4.0,4.0,99,0.00,,---,0.00,VWS V14.01,2013-06-26 09:23:00,
2013-06-26 05:28:00,60.5,60.2,29.82,South,176,2.0,5.0,99,0.00,,---,0.00,VWS V14.01,2013-06-26 09:28:00,
2013-06-26 05:30:00,60.5,59.9,29.83,South,177,0.0,3.0,98,0.00,,---,0.00,VWS V14.01,2013-06-26 09:30:00,
2013-06-26 05:33:00,60.3,60.0,29.82,South,177,3.0,5.0,99,0.00,,---,0.00,VWS V14.01,2013-06-26 09:33:00,
2013-06-26 05:38:00,60.3,60.0,29.81,SE,142,2.0,6.0,99,0.00,,---,0.00,VWS V14.01,2013-06-26 09:38:00,
2013-06-26 05:40:00,60.3,59.7,29.82,South,177,0.0,2.0,98,0.00,,---,0.00,VWS V14.01,2013-06-26 09:40:00,
2013-06-26 05:43:00,60.0,59.4,29.81,SE,142,1.0,3.0,98,0.00,,---,0.00,VWS V14.01,2013-06-26 09:43:00,
2013-06-26 05:48:00,60.0,59.7,29.82,SE,142,1.0,3.0,99,0.00,,---,0.00,VWS V14.01,2013-06-26 09:48:00,
2013-06-26 05:50:00,60.2,59.6,29.82,South,176,1.0,3.0,98,0.00,,---,0.00,VWS V14.01,2013-06-26 09:50:00,
2013-06-26 05:53:00,60.2,59.9,29.82,SE,142,1.0,4.0,99,0.00,,---,0.00,VWS V14.01,2013-06-26 09:53:00,
2013-06-26 05:58:00,60.2,59.9,29.82,SE,142,1.0,4.0,99,0.00,,---,0.00,VWS V14.01,2013-06-26 09:58:00,
2013-06-26 06:00:00,60.2,59.6,29.82,South,176,0.0,3.0,98,0.00,,---,0.00,VWS V14.01,2013-06-26 10:00:00,
2013-06-26 06:03:00,60.0,59.7,29.82,SE,142,0.0,2.0,99,0.00,,---,0.00,VWS V14.01,2013-06-26 10:03:00,
2013-06-26 06:08:00,60.1,59.8,29.83,SE,142,1.0,3.0,99,0.00,,---,0.00,VWS V14.01,2013-06-26 10:08:00,
2013-06-26 06:10:00,60.0,59.7,29.83,South,176,0.0,3.0,99,0.00,,---,0.00,VWS V14.01,2013-06-26 10:10:00,
2013-06-26 06:13:00,60.3,60.0,29.82,SE,144,2.0,4.0,99,0.00,,---,0.00,VWS V14.01,2013-06-26 10:13:00,
2013-06-26 06:18:00,60.3,60.0,29.82,SE,144,0.0,4.0,99,0.00,,---,0.00,VWS V14.01,2013-06-26 10:18:00,
2013-06-26 06:20:00,59.9,59.3,29.83,South,176,3.0,5.0,98,0.00,,---,0.00,VWS V14.01,2013-06-26 10:20:00,
2013-06-26 06:23:00,60.1,59.8,29.83,SE,144,0.0,2.0,99,0.00,,---,0.00,VWS V14.01,2013-06-26 10:23:00,
2013-06-26 06:28:00,60.1,59.8,29.83,SE,144,0.0,2.0,99,0.00,,---,0.00,VWS V14.01,2013-06-26 10:28:00,
2013-06-26 06:30:00,60.3,60.0,29.82,South,176,2.0,5.0,99,0.00,,---,0.00,VWS V14.01,2013-06-26 10:30:00,
2013-06-26 06:33:00,60.0,59.7,29.83,SE,144,0.0,0.0,99,0.00,,---,0.00,VWS V14.01,2013-06-26 10:33:00,
2013-06-26 06:39:00,59.7,59.4,29.83,SE,144,0.0,0.0,99,0.00,,---,0.00,VWS V14.01,2013-06-26 10:39:00,
2013-06-26 06:40:00,60.2,59.9,29.82,SE,142,1.0,6.0,99,0.00,,---,0.00,VWS V14.01,2013-06-26 10:40:00,
2013-06-26 06:44:00,59.8,59.5,29.84,SE,144,1.0,2.0,99,0.00,,---,0.00,VWS V14.01,2013-06-26 10:44:00,
2013-06-26 06:49:00,59.9,59.6,29.84,SE,144,1.0,3.0,99,0.00,,---,0.00,VWS V14.01,2013-06-26 10:49:00,
2013-06-26 06:50:00,60.0,59.7,29.82,SE,142,1.0,3.0,99,0.00,,---,0.00,VWS V14.01,2013-06-26 10:50:00,
2013-06-26 06:54:00,60.0,59.7,29.84,SE,144,1.0,3.0,99,0.00,,---,0.00,VWS V14.01,2013-06-26 10:54:00,
2013-06-26 06:59:00,59.8,59.5,29.84,SE,144,1.0,3.0,99,0.00,,---,0.00,VWS V14.01,2013-06-26 10:59:00,
2013-06-26 07:00:00,60.2,59.9,29.82,SE,142,1.0,4.0,99,0.00,,---,0.00,VWS V14.01,2013-06-26 11:00:00,
2013-06-26 07:04:00,60.1,59.8,29.84,ENE,70,0.0,1.0,99,0.00,,---,0.00,VWS V14.01,2013-06-26 11:04:00,
2013-06-26 07:09:00,60.3,60.0,29.84,ENE,64,0.0,1.0,99,0.00,,---,0.00,VWS V14.01,2013-06-26 11:09:00,
2013-06-26 07:10:00,60.2,59.9,29.83,SE,142,0.0,3.0,99,0.00,,---,0.00,VWS V14.01,2013-06-26 11:10:00,
2013-06-26 07:14:00,60.8,60.5,29.84,ENE,60,0.0,0.0,99,0.00,,---,0.00,VWS V14.01,2013-06-26 11:14:00,
2013-06-26 07:19:00,61.6,61.3,29.84,ENE,59,1.0,1.0,99,0.00,,---,0.00,VWS V14.01,2013-06-26 11:19:00,
2013-06-26 07:20:00,60.3,60.0,29.83,SE,144,0.0,4.0,99,0.00,,---,0.00,VWS V14.01,2013-06-26 11:20:00,
2013-06-26 07:24:00,61.9,61.6,29.84,ENE,60,2.0,3.0,99,0.00,,---,0.00,VWS V14.01,2013-06-26 11:24:00,
2013-06-26 07:29:00,62.4,62.1,29.84,ESE,112,1.0,3.0,99,0.00,,---,0.00,VWS V14.01,2013-06-26 11:29:00,
2013-06-26 07:30:00,60.1,59.8,29.83,SE,144,0.0,2.0,99,0.00,,---,0.00,VWS V14.01,2013-06-26 11:30:00,
2013-06-26 07:34:00,63.0,63.0,29.83,ESE,111,1.0,2.0,100,0.00,,---,0.00,VWS V14.01,2013-06-26 11:34:00,
2013-06-26 07:39:00,63.0,63.0,29.83,ESE,110,2.0,3.0,100,0.00,,---,0.00,VWS V14.01,2013-06-26 11:39:00,
2013-06-26 07:40:00,59.7,59.4,29.83,SE,144,0.0,0.0,99,0.00,,---,0.00,VWS V14.01,2013-06-26 11:40:00,
2013-06-26 07:44:00,63.3,63.3,29.83,ESE,110,0.0,3.0,100,0.00,,---,0.00,VWS V14.01,2013-06-26 11:44:00,
2013-06-26 07:49:00,64.0,64.0,29.83,ESE,110,3.0,3.0,100,0.00,,---,0.00,VWS V14.01,2013-06-26 11:49:00,
2013-06-26 07:50:00,59.9,59.6,29.84,SE,144,2.0,3.0,99,0.00,,---,0.00,VWS V14.01,2013-06-26 11:50:00,
2013-06-26 07:54:00,64.5,64.5,29.83,SE,146,2.0,3.0,100,0.00,,---,0.00,VWS V14.01,2013-06-26 11:54:00,
2013-06-26 07:59:00,64.4,64.1,29.83,SSE,157,3.0,3.0,99,0.00,,---,0.00,VWS V14.01,2013-06-26 11:59:00,
2013-06-26 08:00:00,59.9,59.6,29.84,SE,144,0.0,3.0,99,0.00,,---,0.00,VWS V14.01,2013-06-26 12:00:00,
2013-06-26 08:04:00,64.8,64.5,29.83,SSE,158,1.0,3.0,99,0.00,,---,0.00,VWS V14.01,2013-06-26 12:04:00,
2013-06-26 08:09:00,65.4,65.1,29.84,SSE,158,1.0,3.0,99,0.00,,---,0.00,VWS V14.01,2013-06-26 12:09:00,
2013-06-26 08:10:00,60.3,60.3,29.84,ENE,62,0.0,1.0,100,0.00,,---,0.00,VWS V14.01,2013-06-26 12:10:00,
2013-06-26 08:14:00,65.9,65.6,29.84,SSE,157,1.0,2.0,99,0.00,,---,0.00,VWS V14.01,2013-06-26 12:14:00,
2013-06-26 08:19:00,66.7,66.1,29.84,SSE,157,2.0,3.0,98,0.00,,---,0.00,VWS V14.01,2013-06-26 12:19:00,
2013-06-26 08:20:00,61.6,61.6,29.84,ENE,60,0.0,1.0,100,0.00,,---,0.00,VWS V14.01,2013-06-26 12:20:00,
2013-06-26 08:24:00,67.2,66.6,29.84,ENE,66,2.0,3.0,98,0.00,,---,0.00,VWS V14.01,2013-06-26 12:24:00,
2013-06-26 08:29:00,67.5,66.9,29.84,ENE,68,0.0,3.0,98,0.00,,---,0.00,VWS V14.01,2013-06-26 12:29:00,
2013-06-26 08:30:00,62.5,62.2,29.83,ESE,113,0.0,3.0,99,0.00,,---,0.00,VWS V14.01,2013-06-26 12:30:00,
2013-06-26 08:34:00,67.7,66.8,29.85,ESE,121,1.0,4.0,97,0.00,,---,0.00,VWS V14.01,2013-06-26 12:34:00,
2013-06-26 08:39:00,67.8,66.6,29.85,ESE,123,1.0,4.0,96,0.00,,---,0.00,VWS V14.01,2013-06-26 12:39:00,
2013-06-26 08:40:00,63.0,63.0,29.83,ESE,109,0.0,3.0,100,0.00,,---,0.00,VWS V14.01,2013-06-26 12:40:00,
2013-06-26 08:44:00,68.0,66.5,29.85,ESE,122,2.0,3.0,95,0.00,,---,0.00,VWS V14.01,2013-06-26 12:44:00,
2013-06-26 08:49:00,68.5,67.0,29.85,ESE,121,0.0,3.0,95,0.00,,---,0.00,VWS V14.01,2013-06-26 12:49:00,
2013-06-26 08:50:00,64.1,64.1,29.83,ENE,62,1.0,3.0,100,0.00,,---,0.00,VWS V14.01,2013-06-26 12:50:00,
2013-06-26 08:54:00,68.8,67.0,29.84,ESE,122,1.0,3.0,94,0.00,,---,0.00,VWS V14.01,2013-06-26 12:54:00,
2013-06-26 08:59:00,69.0,66.9,29.84,SE,130,2.0,3.0,93,0.00,,---,0.00,VWS V14.01,2013-06-26 12:59:00,
2013-06-26 09:00:00,64.5,64.2,29.83,SSE,157,3.0,3.0,99,0.00,,---,0.00,VWS V14.01,2013-06-26 13:00:00,
2013-06-26 09:04:00,69.5,67.1,29.85,SE,130,2.0,3.0,92,0.00,,---,0.00,VWS V14.01,2013-06-26 13:04:00,
2013-06-26 09:09:00,70.2,67.4,29.85,SE,135,0.0,3.0,91,0.00,,---,0.00,VWS V14.01,2013-06-26 13:09:00,
2013-06-26 09:10:00,65.4,65.1,29.84,SSE,158,0.0,3.0,99,0.00,,---,0.00,VWS V14.01,2013-06-26 13:10:00,
2013-06-26 09:14:00,70.8,67.7,29.85,SE,135,0.0,2.0,90,0.00,,---,0.00,VWS V14.01,2013-06-26 13:14:00,
2013-06-26 09:19:00,71.2,67.5,29.84,SE,129,0.0,2.0,88,0.00,,---,0.00,VWS V14.01,2013-06-26 13:19:00,
2013-06-26 09:20:00,66.7,66.1,29.84,SSE,156,1.0,3.0,98,0.00,,---,0.00,VWS V14.01,2013-06-26 13:20:00,
2013-06-26 09:24:00,71.7,68.0,29.84,West,271,0.0,2.0,88,0.00,,---,0.00,VWS V14.01,2013-06-26 13:24:00,
2013-06-26 09:29:00,72.2,67.4,29.84,West,271,1.0,3.0,85,0.00,,---,0.00,VWS V14.01,2013-06-26 13:29:00,
2013-06-26 09:30:00,67.5,66.9,29.85,ENE,69,0.0,3.0,98,0.00,,---,0.00,VWS V14.01,2013-06-26 13:30:00,
2013-06-26 09:34:00,72.4,67.3,29.84,West,270,0.0,4.0,84,0.00,,---,0.00,VWS V14.01,2013-06-26 13:34:00,
2013-06-26 09:39:00,72.7,67.2,29.84,West,270,2.0,4.0,83,0.00,,---,0.00,VWS V14.01,2013-06-26 13:39:00,
2013-06-26 09:40:00,67.8,66.6,29.85,ESE,121,1.0,4.0,96,0.00,,---,0.00,VWS V14.01,2013-06-26 13:40:00,
2013-06-26 09:44:00,72.9,67.4,29.84,South,170,1.0,5.0,83,0.00,,---,0.00,VWS V14.01,2013-06-26 13:44:00,
2013-06-26 09:49:00,73.1,67.3,29.84,South,170,0.0,5.0,82,0.00,,---,0.00,VWS V14.01,2013-06-26 13:49:00,
2013-06-26 09:50:00,68.5,67.0,29.85,ESE,120,1.0,3.0,95,0.00,,---,0.00,VWS V14.01,2013-06-26 13:50:00,
2013-06-26 09:55:00,73.4,67.9,29.84,South,170,2.0,2.0,83,0.00,,---,0.00,VWS V14.01,2013-06-26 13:55:00,
2013-06-26 10:00:00,73.9,67.7,29.85,South,170,4.0,5.0,81,0.00,,---,0.00,VWS V14.01,2013-06-26 14:00:00,
2013-06-26 10:05:00,74.1,67.5,29.85,West,271,0.0,4.0,80,0.00,,---,0.00,VWS V14.01,2013-06-26 14:05:00,
2013-06-26 10:10:00,74.2,67.6,29.85,West,280,3.0,6.0,80,0.00,,---,0.00,VWS V14.01,2013-06-26 14:10:00,
2013-06-26 10:15:00,74.6,68.0,29.85,WNW,287,5.0,6.0,80,0.00,,---,0.00,VWS V14.01,2013-06-26 14:15:00,
2013-06-26 10:20:00,74.8,68.2,29.85,WNW,293,5.0,6.0,80,0.00,,---,0.00,VWS V14.01,2013-06-26 14:20:00,
2013-06-26 10:25:00,75.1,68.5,29.85,West,267,2.0,5.0,80,0.00,,---,0.00,VWS V14.01,2013-06-26 14:25:00,
2013-06-26 10:30:00,75.4,68.1,29.84,West,272,0.0,5.0,78,0.00,,---,0.00,VWS V14.01,2013-06-26 14:30:00,
2013-06-26 10:35:00,76.0,67.9,29.85,West,273,1.0,3.0,76,0.00,,---,0.00,VWS V14.01,2013-06-26 14:35:00,
2013-06-26 10:40:00,76.7,68.2,29.84,West,276,0.0,3.0,75,0.00,,---,0.00,VWS V14.01,2013-06-26 14:40:00,
2013-06-26 10:45:00,77.1,68.2,29.84,SW,223,2.0,4.0,74,0.00,,---,0.00,VWS V14.01,2013-06-26 14:45:00,
2013-06-26 10:50:00,77.2,67.9,29.84,SW,220,0.0,1.0,73,0.00,,---,0.00,VWS V14.01,2013-06-26 14:50:00,
2013-06-26 10:55:00,77.1,67.4,29.84,SSW,204,2.0,6.0,72,0.00,,---,0.00,VWS V14.01,2013-06-26 14:55:00,
2013-06-26 11:00:00,77.0,68.1,29.84,East,91,2.0,6.0,74,0.00,,---,0.00,VWS V14.01,2013-06-26 15:00:00,
2013-06-26 11:05:00,77.6,67.9,29.84,SSW,199,3.0,5.0,72,0.00,,---,0.00,VWS V14.01,2013-06-26 15:05:00,
2013-06-26 11:10:00,77.8,68.1,29.84,SSW,198,0.0,5.0,72,0.00,,---,0.00,VWS V14.01,2013-06-26 15:10:00,
2013-06-26 11:15:00,78.1,68.3,29.84,SSW,205,4.0,5.0,72,0.00,,---,0.00,VWS V14.01,2013-06-26 15:15:00,
2013-06-26 11:20:00,78.3,68.1,29.84,East,81,2.0,3.0,71,0.00,,---,0.00,VWS V14.01,2013-06-26 15:20:00,
2013-06-26 11:25:00,78.5,67.9,29.84,SW,234,3.0,5.0,70,0.00,,---,0.00,VWS V14.01,2013-06-26 15:25:00,
2013-06-26 11:30:00,78.6,68.4,29.84,SSW,199,2.0,2.0,71,0.00,,---,0.00,VWS V14.01,2013-06-26 15:30:00,
2013-06-26 11:35:00,79.2,68.2,29.84,SSW,200,0.0,3.0,69,0.00,,---,0.00,VWS V14.01,2013-06-26 15:35:00,
2013-06-26 11:40:00,79.8,68.7,29.84,ESE,104,2.0,3.0,69,0.00,,---,0.00,VWS V14.01,2013-06-26 15:40:00,
2013-06-26 11:45:00,79.6,68.1,29.83,East,101,3.0,5.0,68,0.00,,---,0.00,VWS V14.01,2013-06-26 15:45:00,
2013-06-26 11:50:00,80.0,68.9,29.83,SW,227,2.0,4.0,69,0.00,,---,0.00,VWS V14.01,2013-06-26 15:50:00,
2013-06-26 11:55:00,80.2,68.7,29.83,NE,53,5.0,7.0,68,0.00,,---,0.00,VWS V14.01,2013-06-26 15:55:00,
2013-06-26 12:00:00,80.0,68.1,29.82,ENE,65,1.0,3.0,67,0.00,,---,0.00,VWS V14.01,2013-06-26 16:00:00,
2013-06-26 12:05:00,80.4,67.1,29.83,West,274,4.0,7.0,64,0.00,,---,0.00,VWS V14.01,2013-06-26 16:05:00,
2013-06-26 12:10:00,80.5,67.7,29.83,WSW,253,1.0,1.0,65,0.00,,---,0.00,VWS V14.01,2013-06-26 16:10:00,
2013-06-26 12:15:00,81.1,67.3,29.82,WNW,284,0.0,6.0,63,0.00,,---,0.00,VWS V14.01,2013-06-26 16:15:00,
2013-06-26 12:20:00,81.8,67.1,29.83,South,170,3.0,5.0,61,0.00,,---,0.00,VWS V14.01,2013-06-26 16:20:00,
2013-06-26 12:25:00,82.4,68.1,29.83,SSW,193,2.0,5.0,62,0.00,,---,0.00,VWS V14.01,2013-06-26 16:25:00,
2013-06-26 12:30:00,82.8,68.0,29.83,SSW,193,4.0,4.0,61,0.00,,---,0.00,VWS V14.01,2013-06-26 16:30:00,
2013-06-26 12:35:00,82.4,66.7,29.82,SSW,211,3.0,5.0,59,0.00,,---,0.00,VWS V14.01,2013-06-26 16:35:00,
2013-06-26 12:40:00,82.2,66.9,29.83,South,170,0.0,2.0,60,0.00,,---,0.00,VWS V14.01,2013-06-26 16:40:00,
2013-06-26 12:45:00,82.2,66.0,29.82,WNW,285,0.0,6.0,58,0.00,,---,0.00,VWS V14.01,2013-06-26 16:45:00,
2013-06-26 12:50:00,82.4,66.7,29.82,WNW,283,1.0,2.0,59,0.00,,---,0.00,VWS V14.01,2013-06-26 16:50:00,
2013-06-26 12:55:00,82.4,66.7,29.82,SSW,207,2.0,8.0,59,0.00,,---,0.00,VWS V14.01,2013-06-26 16:55:00,
2013-06-26 13:00:00,82.8,65.5,29.82,South,175,6.0,9.0,56,0.00,,---,0.00,VWS V14.01,2013-06-26 17:00:00,
2013-06-26 13:05:00,83.2,65.4,29.82,South,178,4.0,9.0,55,0.00,,---,0.00,VWS V14.01,2013-06-26 17:05:00,
2013-06-26 13:10:00,83.4,66.6,29.81,SSW,200,4.0,8.0,57,0.00,,---,0.00,VWS V14.01,2013-06-26 17:10:00,
2013-06-26 13:15:00,83.4,66.1,29.81,WSW,239,3.0,8.0,56,0.00,,---,0.00,VWS V14.01,2013-06-26 17:15:00,
2013-06-26 13:20:00,84.0,65.1,29.81,SSW,195,5.0,8.0,53,0.00,,---,0.00,VWS V14.01,2013-06-26 17:20:00,
2013-06-26 13:25:00,84.0,65.1,29.82,South,175,2.0,8.0,53,0.00,,---,0.00,VWS V14.01,2013-06-26 17:25:00,
2013-06-26 13:30:00,84.2,65.2,29.82,WSW,237,5.0,6.0,53,0.00,,---,0.00,VWS V14.01,2013-06-26 17:30:00,
2013-06-26 13:35:00,84.2,66.8,29.82,SW,227,0.0,6.0,56,0.00,,---,0.00,VWS V14.01,2013-06-26 17:35:00,
2013-06-26 13:40:00,84.4,66.5,29.82,South,180,2.0,2.0,55,0.00,,---,0.00,VWS V14.01,2013-06-26 17:40:00,
2013-06-26 13:45:00,84.8,66.3,29.82,SSE,150,5.0,6.0,54,0.00,,---,0.00,VWS V14.01,2013-06-26 17:45:00,
2013-06-26 13:50:00,85.2,66.2,29.82,SSW,196,0.0,0.0,53,0.00,,---,0.00,VWS V14.01,2013-06-26 17:50:00,
2013-06-26 13:55:00,85.3,66.8,29.82,WSW,254,4.0,6.0,54,0.00,,---,0.00,VWS V14.01,2013-06-26 17:55:00,
2013-06-26 14:00:00,85.3,65.7,29.82,South,185,4.0,5.0,52,0.00,,---,0.00,VWS V14.01,2013-06-26 18:00:00,
2013-06-26 14:05:00,85.2,65.6,29.81,SW,228,1.0,7.0,52,0.00,,---,0.00,VWS V14.01,2013-06-26 18:05:00,
2013-06-26 14:10:00,85.5,66.4,29.81,WSW,251,2.0,5.0,53,0.00,,---,0.00,VWS V14.01,2013-06-26 18:10:00,
2013-06-26 14:15:00,85.5,67.5,29.80,North,350,7.0,9.0,55,0.00,,---,0.00,VWS V14.01,2013-06-26 18:15:00,
2013-06-26 14:20:00,84.6,68.7,29.81,North,350,6.0,9.0,59,0.00,,---,0.00,VWS V14.01,2013-06-26 18:20:00,
2013-06-26 14:25:00,83.6,68.7,29.81,North,354,12.0,12.0,61,0.00,,---,0.00,VWS V14.01,2013-06-26 18:25:00,
2013-06-26 14:30:00,83.0,68.7,29.80,North,349,11.0,11.0,62,0.00,,---,0.00,VWS V14.01,2013-06-26 18:30:00,
2013-06-26 14:35:00,82.8,68.5,29.81,North,355,4.0,12.0,62,0.00,,---,0.00,VWS V14.01,2013-06-26 18:35:00,
2013-06-26 14:40:00,82.4,68.6,29.80,NNW,335,6.0,6.0,63,0.00,,---,0.00,VWS V14.01,2013-06-26 18:40:00,
2013-06-26 14:45:00,81.8,68.0,29.80,NNW,348,8.0,8.0,63,0.00,,---,0.00,VWS V14.01,2013-06-26 18:45:00,
2013-06-26 14:50:00,81.3,68.9,29.80,NNW,338,8.0,10.0,66,0.00,,---,0.00,VWS V14.01,2013-06-26 18:50:00,
2013-06-26 14:55:00,81.4,69.0,29.80,North,356,6.0,10.0,66,0.00,,---,0.00,VWS V14.01,2013-06-26 18:55:00,
2013-06-26 15:00:00,81.6,69.2,29.80,North,4,9.0,10.0,66,0.00,,---,0.00,VWS V14.01,2013-06-26 19:00:00,
2013-06-26 15:05:00,82.2,68.8,29.79,North,10,6.0,10.0,64,0.00,,---,0.00,VWS V14.01,2013-06-26 19:05:00,
2013-06-26 15:10:00,82.8,69.4,29.79,North,354,7.0,7.0,64,0.00,,---,0.00,VWS V14.01,2013-06-26 19:10:00,
2013-06-26 15:15:00,83.0,69.1,29.79,NNW,343,6.0,10.0,63,0.00,,---,0.00,VWS V14.01,2013-06-26 19:15:00,
2013-06-26 15:20:00,83.2,69.8,29.79,North,355,10.0,10.0,64,0.00,,---,0.00,VWS V14.01,2013-06-26 19:20:00,
2013-06-26 15:25:00,83.2,69.3,29.79,North,3,11.0,15.0,63,0.00,,---,0.00,VWS V14.01,2013-06-26 19:25:00,
2013-06-26 15:30:00,83.4,69.0,29.78,North,354,6.0,10.0,62,0.00,,---,0.00,VWS V14.01,2013-06-26 19:30:00,
2013-06-26 15:36:00,83.4,69.0,29.79,NNE,14,7.0,15.0,62,0.00,,---,0.00,VWS V14.01,2013-06-26 19:36:00,
2013-06-26 15:40:00,83.0,68.2,29.78,North,353,9.0,10.0,61,0.00,,---,0.00,VWS V14.01,2013-06-26 19:40:00,
2013-06-26 15:45:00,82.2,67.4,29.78,NNW,335,10.0,13.0,61,0.00,,---,0.00,VWS V14.01,2013-06-26 19:45:00,
2013-06-26 15:50:00,82.0,68.6,29.78,North,353,8.0,12.0,64,0.00,,---,0.00,VWS V14.01,2013-06-26 19:50:00,
2013-06-26 15:55:00,81.8,67.5,29.78,North,0,9.0,12.0,62,0.00,,---,0.00,VWS V14.01,2013-06-26 19:55:00,
2013-06-26 16:00:00,81.9,68.1,29.78,NNW,339,8.0,10.0,63,0.00,,---,0.00,VWS V14.01,2013-06-26 20:00:00,
2013-06-26 16:05:00,82.2,68.4,29.79,South,170,7.0,12.0,63,0.00,,---,0.00,VWS V14.01,2013-06-26 20:05:00,
2013-06-26 16:10:00,82.2,67.9,29.79,SSE,167,5.0,9.0,62,0.00,,---,0.00,VWS V14.01,2013-06-26 20:10:00,
2013-06-26 16:15:00,82.4,69.0,29.79,South,174,9.0,10.0,64,0.00,,---,0.00,VWS V14.01,2013-06-26 20:15:00,
2013-06-26 16:20:00,82.4,68.1,29.79,SSE,160,7.0,11.0,62,0.00,,---,0.00,VWS V14.01,2013-06-26 20:20:00,
2013-06-26 16:21:00,82.4,68.1,29.79,SSE,160,6.0,11.0,62,0.00,,---,0.00,VWS V14.01,2013-06-26 20:21:00,
2013-06-26 16:26:00,82.4,68.1,29.79,SSE,165,5.0,11.0,62,0.00,,---,0.00,VWS V14.01,2013-06-26 20:26:00,
2013-06-26 16:30:00,83.4,69.5,29.78,North,353,7.0,15.0,63,0.00,,---,0.00,VWS V14.01,2013-06-26 20:30:00,
2013-06-26 16:31:00,82.4,68.1,29.78,South,186,4.0,7.0,62,0.00,,---,0.00,VWS V14.01,2013-06-26 20:31:00,
2013-06-26 16:36:00,82.6,69.2,29.78,South,176,5.0,8.0,64,0.00,,---,0.00,VWS V14.01,2013-06-26 20:36:00,
2013-06-26 16:40:00,83.0,68.7,29.78,NNW,347,10.0,15.0,62,0.00,,---,0.00,VWS V14.01,2013-06-26 20:40:00,
2013-06-26 16:41:00,82.6,69.2,29.78,East,87,6.0,11.0,64,0.00,,---,0.00,VWS V14.01,2013-06-26 20:41:00,
2013-06-26 16:46:00,82.3,69.4,29.78,North,2,6.0,11.0,65,0.00,,---,0.00,VWS V14.01,2013-06-26 20:46:00,
2013-06-26 16:50:00,82.1,68.7,29.78,NE,39,10.0,13.0,64,0.00,,---,0.00,VWS V14.01,2013-06-26 20:50:00,
2013-06-26 16:51:00,82.4,69.5,29.78,SSE,166,7.0,8.0,65,0.00,,---,0.00,VWS V14.01,2013-06-26 20:51:00,
2013-06-26 16:56:00,82.1,68.7,29.79,SSE,161,8.0,11.0,64,0.00,,---,0.00,VWS V14.01,2013-06-26 20:56:00,
2013-06-26 17:00:00,81.8,68.0,29.78,North,354,8.0,12.0,63,0.00,,---,0.00,VWS V14.01,2013-06-26 21:00:00,
2013-06-26 17:01:00,81.7,69.2,29.78,East,94,6.0,7.0,66,0.00,,---,0.00,VWS V14.01,2013-06-26 21:01:00,
2013-06-26 17:06:00,81.7,69.2,29.78,North,358,7.0,10.0,66,0.00,,---,0.00,VWS V14.01,2013-06-26 21:06:00,
2013-06-26 17:10:00,82.2,68.8,29.79,SSE,165,9.0,12.0,64,0.00,,---,0.00,VWS V14.01,2013-06-26 21:10:00,
2013-06-26 17:11:00,81.1,69.1,29.78,SSE,158,6.0,7.0,67,0.00,,---,0.00,VWS V14.01,2013-06-26 21:11:00,
2013-06-26 17:16:00,80.7,68.3,29.79,SE,130,5.0,9.0,66,0.00,,---,0.00,VWS V14.01,2013-06-26 21:16:00,
2013-06-26 17:20:00,82.4,68.6,29.79,South,173,6.0,11.0,63,0.00,,---,0.00,VWS V14.01,2013-06-26 21:20:00,
2013-06-26 17:21:00,80.7,67.4,29.79,SSE,159,7.0,10.0,64,0.00,,---,0.00,VWS V14.01,2013-06-26 21:21:00,
2013-06-26 17:26:00,80.4,67.1,29.79,SSE,160,4.0,11.0,64,0.00,,---,0.00,VWS V14.01,2013-06-26 21:26:00,
2013-06-26 17:30:00,82.4,68.1,29.78,South,178,4.0,11.0,62,0.00,,---,0.00,VWS V14.01,2013-06-26 21:30:00,
2013-06-26 17:31:00,80.0,67.2,29.79,SSE,151,5.0,9.0,65,0.00,,---,0.00,VWS V14.01,2013-06-26 21:31:00,
2013-06-26 17:36:00,80.0,66.7,29.79,SSE,147,3.0,9.0,64,0.00,,---,0.00,VWS V14.01,2013-06-26 21:36:00,
2013-06-26 17:40:00,82.6,69.2,29.78,ENE,71,8.0,11.0,64,0.00,,---,0.00,VWS V14.01,2013-06-26 21:40:00,
2013-06-26 17:41:00,80.0,66.7,29.79,North,3,9.0,10.0,64,0.00,,---,0.00,VWS V14.01,2013-06-26 21:41:00,
2013-06-26 17:46:00,79.6,66.8,29.79,North,0,9.0,12.0,65,0.00,,---,0.00,VWS V14.01,2013-06-26 21:46:00,
2013-06-26 17:50:00,82.2,69.7,29.78,NE,37,6.0,11.0,66,0.00,,---,0.00,VWS V14.01,2013-06-26 21:50:00,
2013-06-26 17:51:00,80.0,67.2,29.79,North,0,4.0,9.0,65,0.00,,---,0.00,VWS V14.01,2013-06-26 21:51:00,
2013-06-26 17:56:00,80.6,67.8,29.79,NNW,333,7.0,9.0,65,0.00,,---,0.00,VWS V14.01,2013-06-26 21:56:00,
2013-06-26 18:00:00,81.7,69.7,29.78,SSE,157,4.0,11.0,67,0.00,,---,0.00,VWS V14.01,2013-06-26 22:00:00,
2013-06-26 18:01:00,80.9,67.6,29.79,North,4,7.0,7.0,64,0.00,,---,0.00,VWS V14.01,2013-06-26 22:01:00,
2013-06-26 18:06:00,80.7,66.5,29.78,North,350,4.0,7.0,62,0.00,,---,0.00,VWS V14.01,2013-06-26 22:06:00,
2013-06-26 18:10:00,81.3,68.9,29.78,North,7,7.0,10.0,66,0.00,,---,0.00,VWS V14.01,2013-06-26 22:10:00,
2013-06-26 18:11:00,80.5,67.2,29.78,North,357,6.0,7.0,64,0.00,,---,0.00,VWS V14.01,2013-06-26 22:11:00,
2013-06-26 18:16:00,81.1,67.8,29.78,NNW,340,4.0,7.0,64,0.00,,---,0.00,VWS V14.01,2013-06-26 22:16:00,
2013-06-26 18:20:00,80.9,68.0,29.79,SSE,152,8.0,9.0,65,0.00,,---,0.00,VWS V14.01,2013-06-26 22:20:00,
2013-06-26 18:21:00,81.7,68.8,29.78,NNW,339,5.0,5.0,65,0.00,,---,0.00,VWS V14.01,2013-06-26 22:21:00,
2013-06-26 18:26:00,81.3,68.0,29.78,North,1,6.0,10.0,64,0.00,,---,0.00,VWS V14.01,2013-06-26 22:26:00,
2013-06-26 18:30:00,80.0,66.7,29.79,SSE,154,6.0,11.0,64,0.00,,---,0.00,VWS V14.01,2013-06-26 22:30:00,
2013-06-26 18:31:00,80.7,67.4,29.78,NNW,342,6.0,12.0,64,0.00,,---,0.00,VWS V14.01,2013-06-26 22:31:00,
2013-06-26 18:36:00,80.6,67.3,29.78,North,2,4.0,12.0,64,0.00,,---,0.00,VWS V14.01,2013-06-26 22:36:00,
2013-06-26 18:40:00,80.0,67.2,29.79,NNE,28,5.0,11.0,65,0.00,,---,0.00,VWS V14.01,2013-06-26 22:40:00,
2013-06-26 18:41:00,80.4,67.1,29.78,North,3,11.0,14.0,64,0.00,,---,0.00,VWS V14.01,2013-06-26 22:41:00,
2013-06-26 18:46:00,79.1,65.4,29.79,North,359,8.0,14.0,63,0.00,,---,0.00,VWS V14.01,2013-06-26 22:46:00,
2013-06-26 18:51:00,77.8,65.5,29.79,NE,43,7.0,9.0,66,0.00,,---,0.00,VWS V14.01,2013-06-26 22:51:00,
2013-06-26 18:56:00,76.9,65.1,29.79,North,349,4.0,10.0,67,0.00,,---,0.00,VWS V14.01,2013-06-26 22:56:00,
2013-06-26 19:00:00,80.9,67.1,29.79,North,1,6.0,9.0,63,0.00,,---,0.00,VWS V14.01,2013-06-26 23:00:00,
2013-06-26 19:01:00,76.2,64.9,29.79,North,5,6.0,12.0,68,0.00,,---,0.00,VWS V14.01,2013-06-26 23:01:00,
2013-06-26 19:06:00,75.4,64.9,29.79,NNW,334,4.0,12.0,70,0.00,,---,0.00,VWS V14.01,2013-06-26 23:06:00,
2013-06-26 19:10:00,80.6,66.4,29.78,NNW,348,3.0,7.0,62,0.00,,---,0.00,VWS V14.01,2013-06-26 23:10:00,
2013-06-26 19:11:00,75.1,64.7,29.79,NNW,334,5.0,12.0,70,0.00,,---,0.00,VWS V14.01,2013-06-26 23:11:00,
2013-06-26 19:16:00,74.9,65.3,29.80,NNW,345,3.0,12.0,72,0.00,,---,0.00,VWS V14.01,2013-06-26 23:16:00,
2013-06-26 19:20:00,81.7,68.3,29.78,NNW,342,5.0,7.0,64,0.00,,---,0.00,VWS V14.01,2013-06-26 23:20:00,
2013-06-26 19:21:00,74.8,65.2,29.80,North,350,5.0,9.0,72,0.00,,---,0.00,VWS V14.01,2013-06-26 23:21:00,
2013-06-26 19:26:00,73.9,64.7,29.80,NNW,341,4.0,11.0,73,0.00,,---,0.00,VWS V14.01,2013-06-26 23:26:00,
2013-06-26 19:30:00,80.7,67.8,29.79,NNW,342,6.0,11.0,65,0.00,,---,0.00,VWS V14.01,2013-06-26 23:30:00,
2013-06-26 19:31:00,73.2,64.8,29.80,NNW,343,4.0,9.0,75,0.00,,---,0.00,VWS V14.01,2013-06-26 23:31:00,
2013-06-26 19:36:00,72.9,65.3,29.80,NNE,12,4.0,11.0,77,0.00,,---,0.00,VWS V14.01,2013-06-26 23:36:00,
2013-06-26 19:40:00,80.5,67.2,29.79,NNW,345,9.0,12.0,64,0.00,,---,0.00,VWS V14.01,2013-06-26 23:40:00,
2013-06-26 19:41:00,72.7,65.1,29.80,North,359,4.0,5.0,77,0.00,,---,0.00,VWS V14.01,2013-06-26 23:41:00,
2013-06-26 19:46:00,72.4,65.2,29.80,North,354,4.0,6.0,78,0.00,,---,0.00,VWS V14.01,2013-06-26 23:46:00,
2013-06-26 19:50:00,78.1,65.4,29.79,NNW,336,3.0,14.0,65,0.00,,---,0.00,VWS V14.01,2013-06-26 23:50:00,
2013-06-26 19:51:00,71.7,65.2,29.79,NW,311,1.0,4.0,80,0.00,,---,0.00,VWS V14.01,2013-06-26 23:51:00,
2013-06-26 19:56:00,71.5,65.0,29.80,WNW,287,6.0,6.0,80,0.00,,---,0.00,VWS V14.01,2013-06-26 23:56:00,
2013-06-26 20:00:00,76.4,65.1,29.79,NNW,348,5.0,10.0,68,0.00,,---,0.00,VWS V14.01,2013-06-27 00:00:00,
2013-06-26 20:01:00,71.4,64.9,29.79,WNW,291,2.0,7.0,80,0.00,,---,0.00,VWS V14.01,2013-06-27 00:01:00,
2013-06-26 20:06:00,71.3,65.2,29.79,WNW,293,3.0,7.0,81,0.00,,---,0.00,VWS V14.01,2013-06-27 00:06:00,
2013-06-26 20:10:00,75.3,64.8,29.79,North,356,7.0,12.0,70,0.00,,---,0.00,VWS V14.01,2013-06-27 00:10:00,
2013-06-26 20:12:00,71.2,64.7,29.78,NW,318,1.0,6.0,80,0.00,,---,0.00,VWS V14.01,2013-06-27 00:12:00,
2013-06-26 20:17:00,70.7,64.6,29.78,NW,318,0.0,6.0,81,0.00,,---,0.00,VWS V14.01,2013-06-27 00:17:00,
2013-06-26 20:20:00,74.8,65.2,29.80,West,277,3.0,12.0,72,0.00,,---,0.00,VWS V14.01,2013-06-27 00:20:00,
2013-06-26 20:22:00,70.2,64.4,29.78,NW,318,0.0,2.0,82,0.00,,---,0.00,VWS V14.01,2013-06-27 00:22:00,
2013-06-26 20:27:00,69.8,64.4,29.78,NW,318,0.0,3.0,83,0.00,,---,0.00,VWS V14.01,2013-06-27 00:27:00,
2013-06-26 20:30:00,73.4,65.0,29.80,NNW,329,5.0,11.0,75,0.00,,---,0.00,VWS V14.01,2013-06-27 00:30:00,
2013-06-26 20:32:00,69.7,64.3,29.77,NW,318,0.0,1.0,83,0.00,,---,0.00,VWS V14.01,2013-06-27 00:32:00,
2013-06-26 20:37:00,69.5,64.1,29.77,NW,318,0.0,3.0,83,0.00,,---,0.00,VWS V14.01,2013-06-27 00:37:00,
2013-06-26 20:40:00,72.7,65.1,29.80,NNW,339,2.0,11.0,77,0.00,,---,0.00,VWS V14.01,2013-06-27 00:40:00,
2013-06-26 20:42:00,69.3,64.3,29.77,NW,318,0.0,2.0,84,0.00,,---,0.00,VWS V14.01,2013-06-27 00:42:00,
2013-06-26 20:47:00,69.2,64.2,29.77,NW,318,0.0,2.0,84,0.00,,---,0.00,VWS V14.01,2013-06-27 00:47:00,
2013-06-26 20:50:00,71.9,65.0,29.79,NW,320,3.0,12.0,79,0.00,,---,0.00,VWS V14.01,2013-06-27 00:50:00,
2013-06-26 20:52:00,69.0,64.3,29.77,NW,318,0.0,0.0,85,0.00,,---,0.00,VWS V14.01,2013-06-27 00:52:00,
2013-06-26 20:57:00,68.9,64.2,29.78,NW,318,1.0,3.0,85,0.00,,---,0.00,VWS V14.01,2013-06-27 00:57:00,
2013-06-26 21:00:00,71.5,65.4,29.79,West,273,1.0,6.0,81,0.00,,---,0.00,VWS V14.01,2013-06-27 01:00:00,
2013-06-26 21:02:00,68.7,64.3,29.78,NW,318,1.0,2.0,86,0.00,,---,0.00,VWS V14.01,2013-06-27 01:02:00,
2013-06-26 21:07:00,68.5,64.5,29.78,NW,318,3.0,3.0,87,0.00,,---,0.00,VWS V14.01,2013-06-27 01:07:00,
2013-06-26 21:10:00,71.4,64.9,29.79,NW,319,3.0,7.0,80,0.00,,---,0.00,VWS V14.01,2013-06-27 01:10:00,
2013-06-26 21:12:00,68.5,64.5,29.78,NW,318,1.0,3.0,87,0.00,,---,0.00,VWS V14.01,2013-06-27 01:12:00,
2013-06-26 21:17:00,68.5,64.5,29.79,NW,318,0.0,3.0,87,0.00,,---,0.00,VWS V14.01,2013-06-27 01:17:00,
2013-06-26 21:20:00,70.3,64.2,29.78,NW,318,0.0,6.0,81,0.00,,---,0.00,VWS V14.01,2013-06-27 01:20:00,
2013-06-26 21:22:00,68.4,64.7,29.80,NW,318,0.0,2.0,88,0.00,,---,0.00,VWS V14.01,2013-06-27 01:22:00,
2013-06-26 21:27:00,68.3,64.6,29.81,NW,307,1.0,6.0,88,0.00,,---,0.00,VWS V14.01,2013-06-27 01:27:00,
2013-06-26 21:30:00,69.8,64.4,29.78,NW,318,0.0,3.0,83,0.00,,---,0.00,VWS V14.01,2013-06-27 01:30:00,
2013-06-26 21:32:00,68.3,64.6,29.81,NW,307,2.0,3.0,88,0.00,,---,0.00,VWS V14.01,2013-06-27 01:32:00,
2013-06-26 21:37:00,68.3,64.6,29.81,NW,307,1.0,3.0,88,0.00,,---,0.00,VWS V14.01,2013-06-27 01:37:00,
2013-06-26 21:40:00,69.3,64.3,29.77,NW,318,1.0,3.0,84,0.00,,---,0.00,VWS V14.01,2013-06-27 01:40:00,
2013-06-26 21:42:00,68.4,64.7,29.81,NW,307,0.0,3.0,88,0.00,,---,0.00,VWS V14.01,2013-06-27 01:42:00,
2013-06-26 21:47:00,68.4,64.7,29.80,NW,307,2.0,3.0,88,0.00,,---,0.00,VWS V14.01,2013-06-27 01:47:00,
2013-06-26 21:50:00,69.0,64.0,29.77,NW,318,0.0,2.0,84,0.00,,---,0.00,VWS V14.01,2013-06-27 01:50:00,
2013-06-26 21:52:00,68.3,64.6,29.81,East,83,1.0,3.0,88,0.00,,---,0.00,VWS V14.01,2013-06-27 01:52:00,
2013-06-26 21:57:00,68.2,64.5,29.81,East,83,0.0,3.0,88,0.00,,---,0.00,VWS V14.01,2013-06-27 01:57:00,
2013-06-26 22:00:00,68.7,64.3,29.78,NW,318,0.0,3.0,86,0.00,,---,0.00,VWS V14.01,2013-06-27 02:00:00,
2013-06-26 22:02:00,68.2,64.8,29.82,East,83,0.0,2.0,89,0.00,,---,0.00,VWS V14.01,2013-06-27 02:02:00,
2013-06-26 22:07:00,68.0,64.6,29.82,East,83,0.0,2.0,89,0.00,,---,0.00,VWS V14.01,2013-06-27 02:07:00,
2013-06-26 22:10:00,68.5,64.5,29.79,NW,318,0.0,3.0,87,0.00,,---,0.00,VWS V14.01,2013-06-27 02:10:00,
2013-06-26 22:12:00,67.9,64.5,29.81,East,83,2.0,3.0,89,0.00,,---,0.00,VWS V14.01,2013-06-27 02:12:00,
2013-06-26 22:17:00,67.8,64.4,29.81,East,83,0.0,3.0,89,0.00,,---,0.00,VWS V14.01,2013-06-27 02:17:00,
2013-06-26 22:20:00,68.5,64.5,29.80,NW,318,1.0,3.0,87,0.00,,---,0.00,VWS V14.01,2013-06-27 02:20:00,
2013-06-26 22:22:00,67.9,64.5,29.81,East,83,1.0,3.0,89,0.00,,---,0.00,VWS V14.01,2013-06-27 02:22:00,
2013-06-26 22:27:00,67.5,64.2,29.81,East,83,1.0,3.0,89,0.00,,---,0.00,VWS V14.01,2013-06-27 02:27:00,
2013-06-26 22:30:00,68.4,64.7,29.81,NW,307,2.0,6.0,88,0.00,,---,0.00,VWS V14.01,2013-06-27 02:30:00,
2013-06-26 22:32:00,67.4,64.7,29.81,East,83,1.0,3.0,91,0.00,,---,0.00,VWS V14.01,2013-06-27 02:32:00,
2013-06-26 22:37:00,67.2,64.5,29.81,East,83,1.0,3.0,91,0.00,,---,0.00,VWS V14.01,2013-06-27 02:37:00,
2013-06-26 22:40:00,68.4,64.7,29.81,NW,307,0.0,3.0,88,0.00,,---,0.00,VWS V14.01,2013-06-27 02:40:00,
2013-06-26 22:42:00,67.0,64.3,29.80,East,83,1.0,2.0,91,0.00,,---,0.00,VWS V14.01,2013-06-27 02:42:00,
2013-06-26 22:47:00,66.7,64.0,29.80,East,83,0.0,3.0,91,0.00,,---,0.00,VWS V14.01,2013-06-27 02:47:00,
2013-06-26 22:50:00,68.4,64.7,29.81,NW,307,1.0,3.0,88,0.00,,---,0.00,VWS V14.01,2013-06-27 02:50:00,
2013-06-26 22:52:00,66.5,64.1,29.81,East,83,2.0,5.0,92,0.00,,---,0.00,VWS V14.01,2013-06-27 02:52:00,
2013-06-26 22:57:00,66.5,64.1,29.81,East,83,0.0,5.0,92,0.00,,---,0.00,VWS V14.01,2013-06-27 02:57:00,
2013-06-26 23:00:00,68.2,64.5,29.82,East,83,0.0,3.0,88,0.00,,---,0.00,VWS V14.01,2013-06-27 03:00:00,
2013-06-26 23:02:00,66.5,64.1,29.81,East,83,1.0,3.0,92,0.00,,---,0.00,VWS V14.01,2013-06-27 03:02:00,
2013-06-26 23:07:00,66.4,64.0,29.81,East,83,2.0,3.0,92,0.00,,---,0.00,VWS V14.01,2013-06-27 03:07:00,
2013-06-26 23:10:00,67.8,64.4,29.81,East,83,0.0,2.0,89,0.00,,---,0.00,VWS V14.01,2013-06-27 03:10:00,
2013-06-26 23:12:00,66.4,64.0,29.81,East,83,1.0,4.0,92,0.00,,---,0.00,VWS V14.01,2013-06-27 03:12:00,
2013-06-26 23:17:00,66.4,64.3,29.81,East,101,2.0,4.0,93,0.00,,---,0.00,VWS V14.01,2013-06-27 03:17:00,
2013-06-26 23:20:00,67.9,64.5,29.81,East,83,0.0,3.0,89,0.00,,---,0.00,VWS V14.01,2013-06-27 03:20:00,
2013-06-26 23:22:00,66.4,64.3,29.81,East,101,0.0,1.0,93,0.00,,---,0.00,VWS V14.01,2013-06-27 03:22:00,
2013-06-26 23:27:00,66.4,64.3,29.81,East,101,0.0,1.0,93,0.00,,---,0.00,VWS V14.01,2013-06-27 03:27:00,
2013-06-26 23:30:00,67.4,64.4,29.81,East,83,0.0,3.0,90,0.00,,---,0.00,VWS V14.01,2013-06-27 03:30:00,
2013-06-26 23:32:00,66.4,64.3,29.81,ESE,102,0.0,0.0,93,0.00,,---,0.00,VWS V14.01,2013-06-27 03:32:00,
2013-06-26 23:37:00,66.4,64.3,29.82,East,101,0.0,2.0,93,0.00,,---,0.00,VWS V14.01,2013-06-27 03:37:00,
2013-06-26 23:40:00,67.0,64.0,29.81,East,83,0.0,3.0,90,0.00,,---,0.00,VWS V14.01,2013-06-27 03:40:00,
2013-06-26 23:42:00,66.5,64.7,29.82,ESE,102,0.0,2.0,94,0.00,,---,0.00,VWS V14.01,2013-06-27 03:42:00,
2013-06-26 23:48:00,66.7,64.9,29.82,ESE,102,2.0,2.0,94,0.00,,---,0.00,VWS V14.01,2013-06-27 03:48:00,
2013-06-26 23:50:00,66.7,64.0,29.80,East,83,2.0,3.0,91,0.00,,---,0.00,VWS V14.01,2013-06-27 03:50:00,
2013-06-26 23:53:00,66.9,65.1,29.82,ESE,102,1.0,3.0,94,0.00,,---,0.00,VWS V14.01,2013-06-27 03:53:00,
2013-06-26 23:58:00,67.2,65.4,29.82,ESE,102,0.0,3.0,94,0.00,,---,0.00,VWS V14.01,2013-06-27 03:58:00,